Главная страница
METAR-TAF:

METAR-TAF

Аэропорты :

Сиракьюс, Нью-Йорк, США

широта: 43-06-33N, долгота: 076-06-12W, высота над уровнем моря: 128 м

Текущие метеонаблюдения

Эта сводка был подготовлена 1 час и 6 минут назад, в 18:54 UTC
Ветер 11 Узел от северо-западный
Температура 23°C
Влажность 41%
Давление 1017 hPa
Видимость: 16.1 км
небольшая облачность на высоте 5000 фута
Рассеянная облачность на высоте 25000 фута

METAR: KSYR 181854Z 31011KT 10SM FEW050 BKN250 23/09 A3002 RMK AO2 SLP161 T02330089

Время: 16:00 (20:00 UTC)

Прогноз

Эта сводка был подготовлена 2 часа и 36 минут назад, в 17:24 UTC
Прогноз действительный с 18-го 18 UTC до 19-го 18 UTC
Ветер 10 Узел от северо-западный
Видимость: 10 км
ясное небо
С 19-го 0100 UTC
Ветер 3 Узел переменных направлений
Видимость: 10 км
ясное небо

TAF: KSYR 181724Z 1818/1918 32010KT P6SM SKC FM190100 VRB03KT P6SM SKC

Метеонаблюдения и прогнозы для более 4000 аэропортов (сводки METAR и TAF).

Имеющиеся станции представлены на карте желтыми и красными точками.

Чтобы увидеть название станции, наведите на нее мышь.

Затем щелкните, чтобы увидеть метеонаблюдения и метеопрогнозы.

Управление картой: чтобы увеличить масштаб, щелкните зеленые кнопки с черным крестиком; чтобы уменьшить масштаб, щелкните зеленую кнопку с тире; для просмотра соседних карт щелкайте зеленые стрелки.


METAR-TAF: